Latest Weather Observations for Narrandera Airport

IDN60801

Issued at 11:12 pm EDT Friday 15 November 2019 (issued every 10 minutes, with the page automatically refreshed every 10 minutes)

About weather observations | Map of weather stations | Latest weather observations for NSW | Other Formats
Station Details ID: 074148 Name: NARRANDERA AIRPORT AWS Lat: -34.70 Lon: 146.51 Height: 145.0 m
Data from the previous 72 hours. | See also: Recent months at Narrandera Airport
Date/Time
EDT
Temp
°C
App
Temp
°C
Dew
Point
°C
Rel
Hum
%
Delta-T
°C
Wind Press
QNH
hPa
Press
MSL
hPa
Rain since
9am
mm
Dir  Spd
km/h
Gust
km/h
Spd
kts
Gust
kts
15/11:00pm 18.6 15.6 5.8 43 6.3 SW 11 19 6 10 1015.0 1014.5 0.0
15/10:30pm 19.2 14.6 5.6 41 6.7 SW 19 26 10 14 1014.8 1014.3 0.0
15/10:00pm 19.7 16.0 4.2 36 7.5 WSW 13 22 7 12 1014.5 1014.0 0.0
15/09:30pm 19.4 16.3 3.6 35 7.5 W 9 11 5 6 1014.0 1013.4 0.0
15/09:00pm 20.1 16.6 3.3 33 8.0 WSW 11 15 6 8 1013.7 1013.1 0.0
15/08:30pm 20.5 17.0 3.3 32 8.2 WSW 11 15 6 8 1013.5 1012.9 0.0
15/08:00pm 21.2 16.9 3.0 30 8.7 W 15 22 8 12 1013.0 1012.4 0.0
15/07:30pm 21.8 17.2 3.5 30 8.8 WSW 17 26 9 14 1012.6 1012.0 0.0
15/07:00pm 22.8 17.6 3.4 28 9.4 WSW 20 30 11 16 1012.1 1011.6 0.0
15/06:30pm 23.4 17.4 3.4 27 9.8 W 24 35 13 19 1011.7 1011.2 0.0
15/06:00pm 23.6 18.3 3.0 26 10.0 W 20 35 11 19 1011.5 1011.0 0.0
15/05:30pm 24.1 18.1 3.4 26 10.1 W 24 35 13 19 1011.3 1010.8 0.0
15/05:00pm 23.5 17.8 2.9 26 10.0 WSW 22 33 12 18 1011.4 1010.9 0.0
15/04:30pm 24.2 18.6 3.5 26 10.2 WNW 22 43 12 23 1011.2 1010.7 0.0
15/04:00pm 24.2 17.4 2.9 25 10.4 W 28 37 15 20 1011.4 1010.9 0.0
15/03:30pm 23.7 16.8 2.5 25 10.2 W 28 37 15 20 1011.5 1011.0 0.0
15/03:00pm 23.7 17.7 3.6 27 9.9 W 24 35 13 19 1011.8 1011.3 0.0
15/02:30pm 24.0 18.6 4.4 28 9.8 W 22 30 12 16 1012.1 1011.6 0.0
15/02:00pm 23.9 18.1 4.3 28 9.8 W 24 37 13 20 1012.4 1011.8 0.0
15/01:30pm 23.1 18.1 4.6 30 9.2 WSW 20 37 11 20 1012.6 1012.0 0.0
15/01:00pm 22.6 17.2 4.6 31 8.9 W 22 35 12 19 1012.7 1012.1 0.0
15/12:30pm 22.2 16.5 4.7 32 8.7 W 24 43 13 23 1013.1 1012.5 0.0
15/12:00pm 21.6 14.5 3.8 31 8.6 WNW 30 43 16 23 1013.4 1012.8 0.0
15/11:30am 21.9 15.8 4.9 33 8.4 W 26 37 14 20 1013.7 1013.1 0.0
15/11:00am 21.2 15.3 5.9 37 7.7 WNW 26 39 14 21 1013.9 1013.3 0.0
15/10:30am 20.0 15.6 6.7 42 6.8 W 19 28 10 15 1014.2 1013.6 0.0
15/10:00am 19.3 14.4 6.8 44 6.3 W 22 30 12 16 1014.3 1013.8 0.0
15/09:30am 18.4 14.0 6.6 46 5.9 W 19 24 10 13 1014.4 1013.9 0.0
15/09:00am 17.2 12.8 6.4 49 5.3 WSW 19 26 10 14 1014.3 1013.8 0.0
15/08:30am 16.6 12.2 6.7 52 4.9 WSW 19 26 10 14 1014.3 1013.8 0.0
15/08:00am 15.6 11.0 6.6 55 4.4 WSW 20 28 11 15 1014.2 1013.6 0.0
15/07:30am 14.4 11.0 6.0 57 4.0 WSW 13 20 7 11 1014.0 1013.4 0.0
15/07:00am 12.8 11.1 5.9 63 3.3 WNW 4 15 2 8 1013.7 1013.1 0.0
15/06:30am 10.6 9.5 4.9 68 2.6 CALM 0 0 0 0 1013.3 1012.7 0.0
15/06:00am 10.4 8.9 4.8 68 2.5 N 2 7 1 4 1012.6 1012.0 0.0
15/05:30am 10.5 8.1 4.2 65 2.8 N 6 9 3 5 1012.4 1011.8 0.0
15/05:00am 11.3 8.7 4.1 61 3.2 NNW 7 9 4 5 1012.2 1011.7 0.0
15/04:30am 13.1 9.9 5.0 58 3.8 WSW 11 15 6 8 1012.5 1011.9 0.0
15/04:00am 12.1 9.8 4.6 60 3.4 NW 6 9 3 5 1012.1 1011.6 0.0
15/03:30am 11.3 10.1 4.7 64 3.0 CALM 0 0 0 0 1012.2 1011.7 0.0
15/03:00am 10.9 9.8 5.2 68 2.6 CALM 0 0 0 0 1012.5 1011.9 0.0
15/02:30am 12.0 10.0 4.5 60 3.4 NW 4 7 2 4 1012.8 1012.2 0.0
15/02:00am 11.3 10.2 5.2 66 2.8 CALM 0 0 0 0 1013.1 1012.5 0.0
15/01:30am 12.3 11.3 5.7 64 3.1 CALM 0 0 0 0 1013.4 1012.8 0.0
15/01:00am 12.6 11.6 5.5 62 3.3 CALM 0 0 0 0 1013.6 1013.0 0.0
15/12:30am 13.8 12.7 4.9 55 4.2 CALM 0 0 0 0 1013.9 1013.3 0.0
15/12:00am 14.9 13.6 4.0 48 5.0 CALM 0 0 0 0 1014.1 1013.5 0.0
 
Date/Time
EDT
Temp
°C
App
Temp
°C
Dew
Point
°C
Rel
Hum
%
Delta-T
°C
Wind Press
QNH
hPa
Press
MSL
hPa
Rain since
9am
mm
Dir  Spd
km/h
Gust
km/h
Spd
kts
Gust
kts
14/11:30pm 15.3 14.0 4.1 47 5.2 CALM 0 0 0 0 1014.2 1013.6 0.0
14/11:00pm 15.8 14.5 3.9 45 5.5 CALM 0 6 0 3 1014.4 1013.9 0.0
14/10:30pm 16.2 13.4 2.9 41 6.1 WNW 7 9 4 5 1014.4 1013.9 0.0
14/10:00pm 18.0 14.9 3.5 38 6.8 W 9 11 5 6 1014.5 1014.0 0.0
14/09:30pm 19.1 16.0 3.7 36 7.3 W 9 13 5 7 1014.4 1013.9 0.0
14/09:00pm 19.9 16.4 3.6 34 7.8 WNW 11 19 6 10 1014.2 1013.6 0.0
14/08:30pm 21.0 17.2 3.7 32 8.3 W 13 17 7 9 1014.0 1013.4 0.0
14/08:00pm 22.0 17.8 3.6 30 8.9 W 15 20 8 11 1013.9 1013.3 0.0
14/07:30pm 23.2 18.6 3.7 28 9.6 W 17 26 9 14 1013.7 1013.1 0.0
14/07:00pm 23.9 19.1 4.8 29 9.6 WSW 19 26 10 14 1013.5 1012.9 0.0
14/06:30pm 25.0 21.1 5.2 28 10.1 WSW 15 24 8 13 1013.4 1012.8 0.0
14/06:00pm 24.7 19.0 5.0 28 10.0 W 24 33 13 18 1013.6 1013.0 0.0
14/05:30pm 24.8 19.5 5.1 28 10.0 W 22 32 12 17 1013.8 1013.2 0.0
14/05:00pm 25.2 19.9 4.9 27 10.3 W 22 33 12 18 1014.0 1013.4 0.0
14/04:30pm 24.5 19.5 4.8 28 9.9 WSW 20 32 11 17 1014.2 1013.6 0.0
14/04:00pm 24.8 19.4 4.5 27 10.2 W 22 32 12 17 1014.5 1014.0 0.0
14/03:30pm 24.7 20.2 6.0 30 9.7 W 19 35 10 19 1014.9 1014.4 0.0
14/03:00pm 24.2 19.4 5.5 30 9.5 WSW 20 30 11 16 1015.4 1014.9 0.0
14/02:30pm 23.8 19.1 6.1 32 9.1 WNW 20 35 11 19 1015.8 1015.3 0.0
14/02:00pm 23.6 19.5 6.4 33 8.9 WNW 17 30 9 16 1016.1 1015.6 0.0
14/01:30pm 23.0 18.5 6.3 34 8.6 WNW 19 30 10 16 1016.5 1016.0 0.0
14/01:00pm 22.2 17.6 6.4 36 8.1 W 20 39 11 21 1017.0 1016.5 0.0
14/12:30pm 21.6 17.6 6.7 38 7.6 WSW 17 26 9 14 1017.5 1017.0 0.0
14/12:00pm 21.0 17.3 6.5 39 7.4 WNW 15 28 8 15 1017.9 1017.4 0.0
14/11:30am 20.4 16.6 7.7 44 6.6 WSW 17 26 9 14 1018.3 1017.8 0.0
14/11:00am 20.2 16.8 7.6 44 6.5 WNW 15 26 8 14 1018.4 1017.9 0.0
14/10:30am 19.2 16.8 8.5 50 5.6 WNW 11 22 6 12 1018.5 1018.0 0.0
14/10:00am 17.8 16.0 8.1 53 5.0 NW 7 13 4 7 1018.7 1018.2 0.0
14/09:30am 16.5 13.6 8.0 57 4.3 W 13 19 7 10 1019.0 1018.5 0.0
14/09:00am 16.0 13.5 8.2 60 4.0 SW 11 17 6 9 1018.9 1018.4 0.0
14/08:30am 14.6 11.3 7.9 64 3.4 SW 15 20 8 11 1018.8 1018.3 0.0
14/08:00am 14.3 10.6 7.8 65 3.2 SW 17 24 9 13 1018.5 1018.0 0.0
14/07:30am 13.4 11.0 7.0 65 3.1 WSW 9 13 5 7 1018.3 1017.8 0.0
14/07:00am 12.8 10.4 7.0 68 2.8 WSW 9 13 5 7 1018.0 1017.5 0.0
14/06:30am 10.5 8.4 5.9 73 2.1 NW 6 9 3 5 1017.7 1017.2 0.0
14/06:00am 9.0 7.3 3.8 70 2.3 NNE 2 6 1 3 1017.4 1016.9 0.0
14/05:30am 11.5 8.8 5.6 67 2.8 WSW 9 11 5 6 1017.2 1016.7 0.0
14/05:00am 11.6 8.7 4.8 63 3.1 W 9 11 5 6 1016.8 1016.3 0.0
14/04:30am 12.1 9.2 4.6 60 3.4 W 9 13 5 7 1016.7 1016.2 0.0
14/04:00am 12.6 9.7 4.6 58 3.7 WSW 9 13 5 7 1016.9 1016.4 0.0
14/03:30am 12.4 9.4 4.1 57 3.8 WSW 9 11 5 6 1016.9 1016.4 0.0
14/03:00am 13.0 10.4 4.2 55 4.0 WSW 7 9 4 5 1016.9 1016.4 0.0
14/02:30am 13.5 10.6 4.4 54 4.2 WSW 9 13 5 7 1017.0 1016.5 0.0
14/02:00am 13.9 10.9 3.9 51 4.6 WSW 9 15 5 8 1017.1 1016.6 0.0
14/01:30am 14.4 11.3 3.8 49 4.9 WSW 9 15 5 8 1017.3 1016.8 0.0
14/01:00am 14.8 11.3 3.6 47 5.1 WSW 11 15 6 8 1017.6 1017.1 0.0
14/12:30am 15.5 12.0 3.6 45 5.5 WSW 11 20 6 11 1017.7 1017.2 0.0
14/12:00am 16.0 12.1 3.4 43 5.8 WSW 13 20 7 11 1017.7 1017.2 0.0
 
Date/Time
EDT
Temp
°C
App
Temp
°C
Dew
Point
°C
Rel
Hum
%
Delta-T
°C
Wind Press
QNH
hPa
Press
MSL
hPa
Rain since
9am
mm
Dir  Spd
km/h
Gust
km/h
Spd
kts
Gust
kts
13/11:30pm 16.1 12.1 2.9 41 6.0 WSW 13 20 7 11 1017.7 1017.2 0.0
13/11:00pm 16.0 12.1 1.0 36 6.6 WSW 11 13 6 7 1017.8 1017.3 0.0
13/10:30pm 16.3 12.7 0.8 35 6.8 WSW 9 17 5 9 1017.7 1017.2 0.0
13/10:00pm 16.2 12.6 0.3 34 6.9 W 9 11 5 6 1017.4 1016.9 0.0
13/09:30pm 16.4 12.7 -0.3 32 7.2 W 9 11 5 6 1017.1 1016.6 0.0
13/09:00pm 17.8 14.1 0.0 30 7.8 WSW 9 13 5 7 1017.0 1016.5 0.0
13/08:30pm 18.2 14.1 -0.1 29 8.0 WSW 11 15 6 8 1016.9 1016.4 0.0
13/08:00pm 18.8 14.3 -0.6 27 8.4 WSW 13 20 7 11 1016.5 1016.0 0.0
13/07:30pm 19.9 14.0 -0.7 25 9.0 WSW 20 35 11 19 1016.2 1015.7 0.0
13/07:00pm 20.5 13.2 -0.2 25 9.2 W 28 39 15 21 1016.2 1015.7 0.0
13/06:30pm 21.1 14.6 0.3 25 9.4 WSW 24 39 13 21 1016.1 1015.6 0.0
13/06:00pm 21.1 14.5 -0.2 24 9.5 W 24 35 13 19 1016.0 1015.5 0.0
13/05:30pm 21.1 14.1 -0.2 24 9.5 W 26 39 14 21 1015.9 1015.4 0.0
13/05:00pm 21.5 14.5 -0.5 23 9.8 W 26 41 14 22 1016.0 1015.5 0.0
13/04:30pm 21.2 14.9 -1.3 22 9.9 WSW 22 41 12 22 1016.0 1015.5 0.0
13/04:00pm 21.3 15.3 -1.3 22 9.9 WSW 20 33 11 18 1016.0 1015.5 0.0
13/03:30pm 20.8 14.0 -1.7 22 9.7 WSW 24 35 13 19 1016.2 1015.7 0.0
13/03:00pm 20.9 14.6 -1.0 23 9.6 WSW 22 35 12 19 1016.6 1016.1 0.0
13/02:30pm 20.9 13.4 -1.6 22 9.8 W 28 41 15 22 1017.0 1016.5 0.0
13/02:00pm 20.1 13.3 -1.7 23 9.4 WSW 24 39 13 21 1017.3 1016.8 0.0
13/01:30pm 18.7 12.3 -1.7 25 8.7 W 22 37 12 20 1017.6 1017.1 0.0
13/01:00pm 17.8 12.5 -0.9 28 8.0 W 17 32 9 17 1017.9 1017.4 0.0
13/12:30pm 17.6 11.0 -0.2 30 7.7 WSW 24 35 13 19 1018.3 1017.8 0.0
13/12:00pm 17.6 12.4 0.3 31 7.6 SW 17 28 9 15 1018.6 1018.1 0.0
13/11:30am 16.2 10.7 0.3 34 6.9 SW 19 32 10 17 1018.8 1018.3 0.0
13/11:00am 15.6 10.0 1.0 37 6.4 WSW 20 33 11 18 1019.3 1018.8 0.0
13/10:30am 14.9 9.0 1.4 40 5.9 SSW 22 35 12 19 1019.9 1019.3 0.0
13/10:00am 14.6 8.8 2.2 43 5.5 SW 22 33 12 18 1020.1 1019.5 0.0
13/09:30am 14.0 8.6 2.3 45 5.2 SW 20 30 11 16 1019.9 1019.3 0.0
13/09:00am 12.7 6.8 2.0 48 4.6 SW 22 32 12 17 1019.7 1019.1 0.0
13/08:30am 11.8 5.5 1.7 50 4.3 SW 24 33 13 18 1019.3 1018.8 0.0
13/08:00am 11.0 5.7 1.8 53 3.9 SW 19 24 10 13 1019.0 1018.5 0.0
13/07:30am 10.2 6.0 1.8 56 3.6 SW 13 20 7 11 1018.6 1018.1 0.0
13/07:00am 9.2 5.3 1.4 58 3.2 SW 11 15 6 8 1018.4 1017.9 0.0
13/06:30am 8.4 4.9 1.1 60 3.0 SW 9 15 5 8 1018.2 1017.7 0.0
13/06:00am 8.4 4.5 0.9 59 3.0 SW 11 15 6 8 1017.8 1017.3 0.0
13/05:30am 8.9 3.8 0.9 57 3.3 SW 17 26 9 14 1017.7 1017.2 0.0
13/05:00am 9.1 4.0 0.6 55 3.5 SSW 17 26 9 14 1017.5 1017.0 0.0
13/04:30am 9.4 3.3 0.3 53 3.7 SW 22 32 12 17 1017.5 1017.0 0.0
13/04:00am 9.8 3.7 0.2 51 3.9 SW 22 30 12 16 1017.3 1016.8 0.0
13/03:30am 10.3 3.8 0.1 49 4.2 SW 24 39 13 21 1017.1 1016.6 0.0
13/03:00am 10.8 4.0 0.8 50 4.2 SW 26 35 14 19 1017.2 1016.7 0.0
13/02:30am 11.1 5.4 0.8 49 4.3 SSW 20 28 11 15 1017.0 1016.5 0.0
13/02:00am 12.0 4.4 0.8 46 4.7 SSW 30 48 16 26 1016.8 1016.3 0.0
13/01:59am 12.0 4.4 0.8 46 4.7 SSW 30 48 16 26 1016.8 1016.3 0.0
13/01:30am 12.9 6.7 1.9 47 4.8 SSW 24 32 13 17 1016.6 1016.1 0.0
13/01:00am 13.7 6.4 -0.3 38 5.8 SW 28 43 15 23 1016.3 1015.8 0.0
13/12:30am 14.4 7.9 -2.1 32 6.7 WSW 22 37 12 20 1016.0 1015.5 0.0
13/12:00am 15.0 8.1 -2.4 30 7.0 WSW 24 39 13 21 1015.7 1015.2 0.0
 
Date/Time
EDT
Temp
°C
App
Temp
°C
Dew
Point
°C
Rel
Hum
%
Delta-T
°C
Wind Press
QNH
hPa
Press
MSL
hPa
Rain since
9am
mm
Dir  Spd
km/h
Gust
km/h
Spd
kts
Gust
kts
12/11:30pm 15.4 9.6 -1.6 31 7.0 WSW 19 32 10 17 1015.4 1014.9 0.0

Other formats

Comma delimited format used in spreadsheet applications
http://www.bom.gov.au/fwo/IDN60801/IDN60801.95706.axf

JavaScript Object Notation format (JSON) in row-major order
http://www.bom.gov.au/fwo/IDN60801/IDN60801.95706.json

Data quality

Most of these data are generated automatically and are frequently updated. Quality checks on data are not normally performed. It is possible for incorrect values to appear. Refer to information at About Latest Weather Observations and please check the disclaimer before using these data.